createdAt,value
2022-12-07T00:00:40.380Z,1.75
2022-12-07T00:03:25.947Z,1.75
2022-12-07T00:06:14.140Z,1.74
2022-12-07T00:08:59.687Z,1.75
2022-12-07T00:11:46.146Z,1.74
2022-12-07T00:14:31.816Z,1.73
2022-12-07T00:17:17.404Z,1.73
2022-12-07T00:20:03.199Z,1.72
2022-12-07T00:22:48.957Z,1.71
2022-12-07T00:25:34.606Z,1.71
2022-12-07T00:28:19.870Z,1.70
2022-12-07T00:31:10.865Z,1.69
2022-12-07T00:33:56.803Z,1.69
2022-12-07T00:36:42.458Z,1.69
2022-12-07T00:39:27.849Z,1.67
2022-12-07T00:42:13.306Z,1.67
2022-12-07T00:44:58.762Z,1.65
2022-12-07T00:47:44.171Z,1.65
2022-12-07T00:50:29.522Z,1.65
2022-12-07T00:53:15.966Z,1.64
2022-12-07T00:56:16.655Z,1.63
2022-12-07T00:59:04.211Z,1.61
2022-12-07T01:01:49.972Z,1.60
2022-12-07T01:04:35.961Z,1.60
2022-12-07T01:07:21.631Z,1.62
2022-12-07T01:10:07.813Z,1.60
2022-12-07T01:12:54.043Z,1.62
2022-12-07T01:15:44.912Z,1.62
2022-12-07T01:18:32.241Z,1.62
2022-12-07T01:21:26.864Z,1.63
2022-12-07T01:24:14.358Z,1.62
2022-12-07T01:26:59.892Z,1.63
2022-12-07T01:29:45.503Z,1.62
2022-12-07T01:32:31.482Z,1.62
2022-12-07T01:35:16.864Z,1.62
2022-12-07T01:38:02.110Z,1.62
2022-12-07T01:40:55.308Z,1.62
2022-12-07T01:44:26.029Z,1.62
2022-12-07T01:47:11.244Z,1.62
2022-12-07T01:49:56.842Z,1.62
2022-12-07T01:52:44.590Z,1.63
2022-12-07T01:55:30.966Z,1.64
2022-12-07T01:58:17.691Z,1.63
2022-12-07T02:01:03.832Z,1.63
2022-12-07T02:03:50.125Z,1.64
2022-12-07T02:06:39.489Z,1.63
2022-12-07T02:09:25.305Z,1.59
2022-12-07T02:12:13.829Z,1.58
2022-12-07T02:14:59.513Z,1.58
2022-12-07T02:18:10.726Z,1.56
2022-12-07T02:21:21.150Z,1.53
2022-12-07T02:24:44.422Z,1.52
2022-12-07T02:27:51.443Z,1.49
2022-12-07T02:30:45.769Z,1.49
2022-12-07T02:34:00.693Z,1.48
2022-12-07T02:36:53.874Z,1.48
2022-12-07T02:39:49.069Z,1.48
2022-12-07T02:42:41.542Z,1.48
2022-12-07T02:45:30.582Z,1.46
2022-12-07T02:48:19.157Z,1.45
2022-12-07T02:51:05.138Z,1.46
2022-12-07T02:53:50.893Z,1.46
2022-12-07T02:56:45.545Z,1.45
2022-12-07T02:59:31.005Z,1.46
2022-12-07T03:02:35.284Z,1.46
2022-12-07T03:05:30.042Z,1.45
2022-12-07T03:08:33.781Z,1.47
2022-12-07T03:11:42.069Z,1.47
2022-12-07T03:14:37.453Z,1.46
2022-12-07T03:17:29.829Z,1.47
2022-12-07T03:20:19.966Z,1.47
2022-12-07T03:23:10.704Z,1.45
2022-12-07T03:26:01.244Z,1.44
2022-12-07T03:28:53.772Z,1.47
2022-12-07T03:31:44.158Z,1.48
2022-12-07T03:34:39.409Z,1.48
2022-12-07T03:37:36.044Z,1.48
2022-12-07T03:40:45.833Z,1.49
2022-12-07T03:43:32.135Z,1.49
2022-12-07T03:46:44.583Z,1.48
2022-12-07T03:49:34.035Z,1.48
2022-12-07T03:52:29.531Z,1.48
2022-12-07T03:55:44.459Z,1.49
2022-12-07T03:58:31.349Z,1.47
2022-12-07T04:01:19.088Z,1.45
2022-12-07T04:04:04.816Z,1.43
2022-12-07T04:06:50.601Z,1.40
2022-12-07T04:09:36.185Z,1.40
2022-12-07T04:12:22.868Z,1.39
2022-12-07T04:15:09.098Z,1.39
2022-12-07T04:17:56.031Z,1.40
2022-12-07T04:20:42.307Z,1.39
2022-12-07T04:23:28.056Z,1.39
2022-12-07T04:26:13.413Z,1.38
2022-12-07T04:29:01.385Z,1.38
2022-12-07T04:31:51.712Z,1.37
2022-12-07T04:34:37.749Z,1.36
2022-12-07T04:37:23.971Z,1.36
2022-12-07T04:40:12.248Z,1.35
2022-12-07T04:42:58.083Z,1.33
2022-12-07T04:45:48.549Z,1.33
2022-12-07T04:48:34.243Z,1.32
2022-12-07T04:51:25.545Z,1.32
2022-12-07T04:54:11.601Z,1.29
2022-12-07T04:56:57.129Z,1.28
2022-12-07T04:59:46.227Z,1.24
2022-12-07T05:02:31.952Z,1.21
2022-12-07T05:05:20.066Z,1.18
2022-12-07T05:08:06.028Z,1.15
2022-12-07T05:10:52.101Z,1.12
2022-12-07T05:13:37.995Z,1.08
2022-12-07T05:16:23.920Z,1.00
2022-12-07T05:19:10.222Z,0.96
2022-12-07T05:21:58.881Z,0.90
2022-12-07T05:24:44.327Z,0.84
2022-12-07T05:27:29.757Z,0.80
2022-12-07T05:30:15.423Z,0.76
2022-12-07T05:33:01.536Z,0.73
2022-12-07T05:35:47.373Z,0.68
2022-12-07T05:38:33.900Z,0.66
2022-12-07T05:41:38.828Z,0.64
2022-12-07T05:44:24.576Z,0.63
2022-12-07T05:47:11.058Z,0.62
2022-12-07T05:49:56.607Z,0.60
2022-12-07T05:52:42.080Z,0.56
2022-12-07T05:55:27.476Z,0.52
2022-12-07T05:58:31.628Z,0.47
2022-12-07T06:01:17.347Z,0.44
2022-12-07T06:04:03.261Z,0.39
2022-12-07T06:06:48.867Z,0.35
2022-12-07T06:09:35.202Z,0.28
2022-12-07T06:12:35.729Z,0.25
2022-12-07T06:15:21.677Z,0.22
2022-12-07T06:18:07.647Z,0.20
2022-12-07T06:20:52.920Z,0.18
2022-12-07T06:23:38.412Z,0.17
2022-12-07T06:26:23.893Z,0.14
2022-12-07T06:29:09.710Z,0.14
2022-12-07T06:31:55.262Z,0.13
2022-12-07T06:34:40.951Z,0.11
2022-12-07T06:37:26.551Z,0.10
2022-12-07T06:40:12.231Z,0.07
2022-12-07T06:42:57.991Z,0.05
2022-12-07T06:45:44.291Z,0.03
2022-12-07T06:48:29.635Z,0.03
2022-12-07T06:51:14.955Z,0.03
2022-12-07T06:54:00.358Z,0.06
2022-12-07T06:56:45.864Z,0.08
2022-12-07T06:59:31.420Z,0.10
2022-12-07T07:02:16.767Z,0.12
2022-12-07T07:05:02.493Z,0.14
2022-12-07T07:08:20.055Z,0.20
2022-12-07T07:10:54.507Z,0.25
2022-12-07T07:13:40.201Z,0.31
2022-12-07T07:16:25.877Z,0.35
2022-12-07T07:19:11.399Z,0.36
2022-12-07T07:21:57.225Z,0.39
2022-12-07T07:24:42.822Z,0.43
2022-12-07T07:27:28.186Z,0.46
2022-12-07T07:30:14.325Z,0.46
2022-12-07T07:33:01.580Z,0.46
2022-12-07T07:35:47.048Z,0.46
2022-12-07T07:38:32.426Z,0.48
2022-12-07T07:41:17.787Z,0.53
2022-12-07T07:44:03.493Z,0.57
2022-12-07T07:46:49.050Z,0.62
2022-12-07T07:49:34.591Z,0.67
2022-12-07T07:52:20.518Z,0.72
2022-12-07T07:55:06.636Z,0.76
2022-12-07T07:57:54.858Z,0.79
2022-12-07T08:00:40.292Z,0.83
2022-12-07T08:03:25.675Z,0.84
2022-12-07T08:06:11.412Z,0.85
2022-12-07T08:08:59.013Z,0.87
2022-12-07T08:11:44.819Z,0.90
2022-12-07T08:14:30.596Z,0.93
2022-12-07T08:17:16.050Z,0.95
2022-12-07T08:20:02.922Z,1.00
2022-12-07T08:22:48.840Z,1.03
2022-12-07T08:25:34.798Z,1.06
2022-12-07T08:28:20.221Z,1.09
2022-12-07T08:31:18.852Z,1.13
2022-12-07T08:34:04.974Z,1.17
2022-12-07T08:36:52.960Z,1.20
2022-12-07T08:39:38.430Z,1.24
2022-12-07T08:42:28.521Z,1.27
2022-12-07T08:45:16.071Z,1.33
2022-12-07T08:48:07.298Z,1.37
2022-12-07T08:50:53.202Z,1.41
2022-12-07T08:53:40.711Z,1.45
2022-12-07T08:56:26.314Z,1.47
2022-12-07T08:59:13.678Z,1.51
2022-12-07T09:01:59.368Z,1.53
2022-12-07T09:04:44.846Z,1.55
2022-12-07T09:07:33.983Z,1.56
2022-12-07T09:10:19.707Z,1.58
2022-12-07T09:13:05.167Z,1.58
2022-12-07T09:15:50.624Z,1.62
2022-12-07T09:18:35.997Z,1.63
2022-12-07T09:21:21.204Z,1.66
2022-12-07T09:24:06.970Z,1.67
2022-12-07T09:26:52.433Z,1.67
2022-12-07T09:29:38.228Z,1.70
2022-12-07T09:32:24.197Z,1.73
2022-12-07T09:35:10.867Z,1.75
2022-12-07T09:37:56.392Z,1.77
2022-12-07T09:40:44.589Z,1.80
2022-12-07T09:43:30.365Z,1.82
2022-12-07T09:46:20.169Z,1.83
2022-12-07T09:49:10.934Z,1.84
2022-12-07T09:52:05.645Z,1.86
2022-12-07T09:54:51.854Z,1.88
2022-12-07T09:57:38.225Z,1.91
2022-12-07T10:00:25.009Z,1.93
2022-12-07T10:03:12.788Z,1.95
2022-12-07T10:05:58.484Z,1.95
2022-12-07T10:08:44.618Z,1.98
2022-12-07T10:11:30.292Z,1.97
2022-12-07T10:14:15.698Z,1.99
2022-12-07T10:17:01.920Z,2.02
2022-12-07T10:19:47.498Z,2.04
2022-12-07T10:22:32.850Z,2.09
2022-12-07T10:25:20.923Z,2.14
2022-12-07T10:28:09.369Z,2.20
2022-12-07T10:31:00.227Z,2.22
2022-12-07T10:33:59.014Z,2.25
2022-12-07T10:36:44.625Z,2.27
2022-12-07T10:39:30.013Z,2.28
2022-12-07T10:42:24.436Z,2.27
2022-12-07T10:45:12.878Z,2.30
2022-12-07T10:48:08.668Z,2.32
2022-12-07T10:51:03.661Z,2.36
2022-12-07T10:54:16.159Z,2.38
2022-12-07T10:57:44.752Z,2.40
2022-12-07T11:00:45.852Z,2.43
2022-12-07T11:03:53.057Z,2.47
2022-12-07T11:06:38.166Z,2.51
2022-12-07T11:10:07.905Z,2.52
2022-12-07T11:13:05.902Z,2.56
2022-12-07T11:16:15.256Z,2.59
2022-12-07T11:19:28.394Z,2.59
2022-12-07T11:22:52.899Z,2.62
2022-12-07T11:26:05.876Z,2.61
2022-12-07T11:29:28.917Z,2.58
2022-12-07T11:32:26.847Z,2.57
2022-12-07T11:35:20.841Z,2.55
2022-12-07T11:38:37.234Z,2.52
2022-12-07T11:41:32.517Z,2.49
2022-12-07T11:44:27.034Z,2.48
2022-12-07T11:47:22.569Z,2.43
2022-12-07T11:50:37.279Z,2.41
2022-12-07T11:53:30.976Z,2.38
2022-12-07T11:56:23.823Z,2.35
2022-12-07T11:59:24.708Z,2.35
2022-12-07T12:02:15.390Z,2.33
2022-12-07T12:05:03.280Z,2.31
2022-12-07T12:11:31.297Z,2.24
2022-12-07T12:14:57.156Z,2.23
2022-12-07T12:18:02.310Z,2.23
2022-12-07T12:21:11.425Z,2.24
2022-12-07T12:24:04.576Z,2.25
2022-12-07T12:27:00.663Z,2.25
2022-12-07T12:29:52.797Z,2.25
2022-12-07T12:32:42.214Z,2.25
2022-12-07T12:35:32.263Z,2.28
2022-12-07T12:38:31.471Z,2.30
2022-12-07T12:41:48.818Z,2.32
2022-12-07T12:44:34.644Z,2.32
2022-12-07T12:47:40.658Z,2.32
2022-12-07T12:50:32.481Z,2.33
2022-12-07T12:53:26.533Z,2.35
2022-12-07T12:56:14.761Z,2.36
2022-12-07T12:59:24.552Z,2.35
2022-12-07T13:02:23.360Z,2.35
2022-12-07T13:05:10.990Z,2.36
2022-12-07T13:07:56.654Z,2.35
2022-12-07T13:10:44.973Z,2.31
2022-12-07T13:13:32.803Z,2.30
2022-12-07T13:16:18.175Z,2.29
2022-12-07T13:19:03.737Z,2.28
2022-12-07T13:21:49.333Z,2.28
2022-12-07T13:24:35.247Z,2.25
2022-12-07T13:27:20.605Z,2.26
2022-12-07T13:30:17.769Z,2.25
2022-12-07T13:33:04.766Z,2.27
2022-12-07T13:35:55.385Z,2.25
2022-12-07T13:38:57.583Z,2.24
2022-12-07T13:41:44.735Z,2.25
2022-12-07T13:44:40.660Z,2.21
2022-12-07T13:47:30.460Z,2.19
2022-12-07T13:50:28.156Z,2.18
2022-12-07T13:53:15.200Z,2.17
2022-12-07T13:56:02.277Z,2.17
2022-12-07T13:58:47.777Z,2.16
2022-12-07T14:01:33.617Z,2.15
2022-12-07T14:04:31.520Z,2.14
2022-12-07T14:07:23.008Z,2.14
2022-12-07T14:10:28.545Z,2.13
2022-12-07T14:13:59.179Z,2.12
2022-12-07T14:16:55.982Z,2.12
2022-12-07T14:19:48.675Z,2.12
2022-12-07T14:22:37.070Z,2.12
2022-12-07T14:25:27.833Z,2.12
2022-12-07T14:28:32.205Z,2.11
2022-12-07T14:31:27.461Z,2.11
2022-12-07T14:34:15.994Z,2.09
2022-12-07T14:37:01.383Z,2.08
2022-12-07T14:39:46.935Z,2.08
2022-12-07T14:42:35.604Z,2.08
2022-12-07T14:45:23.512Z,2.08
2022-12-07T14:54:26.246Z,2.06
2022-12-07T14:57:12.323Z,2.04
2022-12-07T14:59:57.993Z,2.03
2022-12-07T15:02:43.339Z,2.02
2022-12-07T15:05:28.624Z,2.01
2022-12-07T15:08:14.547Z,2.01
2022-12-07T15:11:00.138Z,2.00
2022-12-07T15:14:04.634Z,1.99
2022-12-07T15:17:08.451Z,1.98
2022-12-07T15:19:55.417Z,1.98
2022-12-07T15:22:41.072Z,1.98
2022-12-07T15:25:26.769Z,1.97
2022-12-07T15:28:12.297Z,1.96
2022-12-07T15:30:57.868Z,1.95
2022-12-07T15:33:44.167Z,1.96
2022-12-07T15:36:31.840Z,1.94
2022-12-07T15:39:17.156Z,1.92
2022-12-07T15:42:03.372Z,1.89
2022-12-07T15:45:07.803Z,1.85
2022-12-07T15:48:26.712Z,1.83
2022-12-07T15:51:09.947Z,1.80
2022-12-07T15:53:55.494Z,1.79
2022-12-07T15:56:40.927Z,1.80
2022-12-07T15:59:28.220Z,1.80
2022-12-07T16:02:14.033Z,1.80
2022-12-07T16:04:59.707Z,1.79
2022-12-07T16:07:47.642Z,1.79
2022-12-07T16:10:33.794Z,1.78
2022-12-07T16:13:20.438Z,1.77
2022-12-07T16:16:08.361Z,1.77
2022-12-07T16:18:53.695Z,1.77
2022-12-07T16:21:39.547Z,1.78
2022-12-07T16:24:25.075Z,1.79
2022-12-07T16:27:10.511Z,1.80
2022-12-07T16:29:56.080Z,1.81
2022-12-07T16:32:41.790Z,1.82
2022-12-07T16:35:27.271Z,1.82
2022-12-07T16:38:12.879Z,1.84
2022-12-07T16:40:58.578Z,1.84
2022-12-07T16:43:43.833Z,1.85
2022-12-07T16:46:29.556Z,1.86
2022-12-07T16:49:16.629Z,1.88
2022-12-07T16:52:19.966Z,1.90
2022-12-07T16:55:06.470Z,1.90
2022-12-07T16:57:51.921Z,1.91
2022-12-07T17:00:38.338Z,1.88
2022-12-07T17:03:23.893Z,1.84
2022-12-07T17:06:24.650Z,1.79
2022-12-07T17:09:11.878Z,1.72
2022-12-07T17:11:58.791Z,1.63
2022-12-07T17:15:02.970Z,1.53
2022-12-07T17:17:54.709Z,1.41
2022-12-07T17:20:40.394Z,1.35
2022-12-07T17:23:27.382Z,1.28
2022-12-07T17:26:17.414Z,1.23
2022-12-07T17:29:04.374Z,1.18
2022-12-07T17:31:51.983Z,1.10
2022-12-07T17:34:38.203Z,1.06
2022-12-07T17:37:23.842Z,1.02
2022-12-07T17:40:09.705Z,0.98
2022-12-07T17:42:55.859Z,0.93
2022-12-07T17:45:41.369Z,0.93
2022-12-07T17:48:27.735Z,0.91
2022-12-07T17:51:31.521Z,0.89
2022-12-07T17:54:18.971Z,0.90
2022-12-07T17:57:04.576Z,0.88
2022-12-07T17:59:51.271Z,0.84
2022-12-07T18:02:36.637Z,0.82
2022-12-07T18:05:22.703Z,0.80
2022-12-07T18:08:08.489Z,0.80
2022-12-07T18:11:01.056Z,0.78
2022-12-07T18:13:46.819Z,0.77
2022-12-07T18:16:35.452Z,0.75
2022-12-07T18:19:20.924Z,0.73
2022-12-07T18:22:06.440Z,0.70
2022-12-07T18:24:51.988Z,0.67
2022-12-07T18:27:37.843Z,0.63
2022-12-07T18:30:37.045Z,0.57
2022-12-07T18:33:28.767Z,0.51
2022-12-07T18:36:16.160Z,0.47
2022-12-07T18:39:07.387Z,0.40
2022-12-07T18:41:53.094Z,0.37
2022-12-07T18:44:38.643Z,0.32
2022-12-07T18:47:24.127Z,0.34
2022-12-07T18:50:11.065Z,0.35
2022-12-07T18:53:01.255Z,0.36
2022-12-07T18:55:46.853Z,0.35
2022-12-07T18:58:32.895Z,0.36
2022-12-07T19:01:18.426Z,0.37
2022-12-07T19:04:04.878Z,0.37
2022-12-07T19:06:51.000Z,0.37
2022-12-07T19:09:36.683Z,0.37
2022-12-07T19:12:22.660Z,0.35
2022-12-07T19:15:09.553Z,0.32
2022-12-07T19:17:55.331Z,0.30
2022-12-07T19:20:41.971Z,0.33
2022-12-07T19:23:27.684Z,0.37
2022-12-07T19:26:13.222Z,0.43
2022-12-07T19:28:59.037Z,0.49
2022-12-07T19:31:44.881Z,0.54
2022-12-07T19:34:31.751Z,0.58
2022-12-07T19:37:18.710Z,0.64
2022-12-07T19:40:06.545Z,0.70
2022-12-07T19:42:52.241Z,0.74
2022-12-07T19:45:38.122Z,0.74
2022-12-07T19:48:23.571Z,0.73
2022-12-07T19:51:08.992Z,0.72
2022-12-07T19:53:58.009Z,0.71
2022-12-07T19:56:45.555Z,0.70
2022-12-07T19:59:31.944Z,0.70
2022-12-07T20:02:17.803Z,0.71
2022-12-07T20:05:06.383Z,0.72
2022-12-07T20:07:53.274Z,0.72
2022-12-07T20:10:39.902Z,0.71
2022-12-07T20:13:32.707Z,0.71
2022-12-07T20:16:21.691Z,0.72
2022-12-07T20:19:10.016Z,0.74
2022-12-07T20:21:55.676Z,0.75
2022-12-07T20:24:42.225Z,0.77
2022-12-07T20:27:29.124Z,0.79
2022-12-07T20:30:15.453Z,0.82
2022-12-07T20:33:01.871Z,0.83
2022-12-07T20:35:48.089Z,0.85
2022-12-07T20:38:33.936Z,0.87
2022-12-07T20:41:38.446Z,0.89
2022-12-07T20:44:25.045Z,0.90
2022-12-07T20:47:11.006Z,0.91
2022-12-07T20:49:56.425Z,0.92
2022-12-07T20:52:41.875Z,0.94
2022-12-07T20:55:27.332Z,0.94
2022-12-07T20:58:12.795Z,0.96
2022-12-07T21:01:02.390Z,0.98
2022-12-07T21:03:48.064Z,0.98
2022-12-07T21:06:34.235Z,0.99
2022-12-07T21:09:21.822Z,0.99
2022-12-07T21:12:11.403Z,0.99
2022-12-07T21:14:57.191Z,1.01
2022-12-07T21:17:42.714Z,1.01
2022-12-07T21:20:28.103Z,1.01
2022-12-07T21:23:13.558Z,1.01
2022-12-07T21:25:59.001Z,1.02
2022-12-07T21:28:44.497Z,1.06
2022-12-07T21:31:30.189Z,1.07
2022-12-07T21:34:16.151Z,1.09
2022-12-07T21:37:01.627Z,1.10
2022-12-07T21:39:47.152Z,1.09
2022-12-07T21:42:32.879Z,1.09
2022-12-07T21:45:18.295Z,1.10
2022-12-07T21:48:03.749Z,1.11
2022-12-07T21:50:49.145Z,1.13
2022-12-07T21:53:35.615Z,1.14
2022-12-07T21:56:41.417Z,1.16
2022-12-07T21:59:27.300Z,1.20
2022-12-07T22:02:14.299Z,1.22
2022-12-07T22:04:59.374Z,1.23
2022-12-07T22:07:45.375Z,1.22
2022-12-07T22:10:31.768Z,1.22
2022-12-07T22:13:17.076Z,1.22
2022-12-07T22:16:03.313Z,1.21
2022-12-07T22:18:49.201Z,1.20
2022-12-07T22:21:34.970Z,1.18
2022-12-07T22:24:20.468Z,1.16
2022-12-07T22:27:05.897Z,1.16
2022-12-07T22:29:51.754Z,1.14
2022-12-07T22:32:48.144Z,1.10
2022-12-07T22:35:34.225Z,1.09
2022-12-07T22:38:19.607Z,1.09
2022-12-07T22:41:19.487Z,1.08
2022-12-07T22:44:07.362Z,1.06
2022-12-07T22:46:52.684Z,1.04
2022-12-07T22:49:38.107Z,1.02
2022-12-07T22:52:23.562Z,0.99
2022-12-07T22:55:14.326Z,0.98
2022-12-07T22:57:59.711Z,0.96
2022-12-07T23:00:48.217Z,0.94
2022-12-07T23:03:34.519Z,0.93
2022-12-07T23:06:23.204Z,0.95
2022-12-07T23:09:12.477Z,0.96
2022-12-07T23:12:36.294Z,1.00
2022-12-07T23:15:21.831Z,1.01
2022-12-07T23:18:07.337Z,1.02
2022-12-07T23:20:56.130Z,1.04
2022-12-07T23:23:41.839Z,1.06
2022-12-07T23:26:27.608Z,1.09
2022-12-07T23:29:17.549Z,1.13
2022-12-07T23:32:04.074Z,1.15
2022-12-07T23:34:50.796Z,1.18
2022-12-07T23:37:36.254Z,1.22
2022-12-07T23:40:21.684Z,1.25
2022-12-07T23:43:07.333Z,1.26
2022-12-07T23:45:52.870Z,1.28
2022-12-07T23:48:39.233Z,1.31
2022-12-07T23:51:25.883Z,1.32
2022-12-07T23:54:12.803Z,1.33
2022-12-07T23:56:58.169Z,1.35
2022-12-07T23:59:43.685Z,1.37
